Time;durP1;ratioP1;P1;durP2;ratioP2;P2;SDS_P1;SDS_P2;PMS_P1;PMS_P2;Temp;Humidity;BMP_temperature;BMP_pressure;BME280_temperature;BME280_humidity;BME280_pressure;Samples;Min_cycle;Max_cycle;Signal;HPM_P1;HPM_P2
2023/01/22 00:01:15;;;;;;;16.90;11.90;;;0.50;99.90;;;;;;5045017;28;20615;-68
2023/01/22 00:03:41;;;;;;;14.05;11.15;;;1.10;99.90;;;;;;5043256;28;20972;-68
2023/01/22 00:06:07;;;;;;;14.00;10.87;;;1.40;99.90;;;;;;5043559;28;20238;-67
2023/01/22 00:08:33;;;;;;;13.82;11.18;;;1.50;99.90;;;;;;5043440;28;20559;-68
2023/01/22 00:10:59;;;;;;;13.90;10.00;;;1.30;99.90;;;;;;5046340;28;20186;-67
2023/01/22 00:13:26;;;;;;;15.90;11.23;;;1.30;99.90;;;;;;5038444;28;20799;-67
2023/01/22 00:15:52;;;;;;;15.40;11.38;;;0.60;99.90;;;;;;5042740;28;20666;-68
2023/01/22 00:18:19;;;;;;;13.00;10.20;;;1.50;99.90;;;;;;5046412;28;20189;-67
2023/01/22 00:20:52;;;;;;;13.25;10.30;;;0.80;99.90;;;;;;5042060;28;20182;-67
2023/01/22 00:23:18;;;;;;;16.75;11.35;;;0.60;99.90;;;;;;5038737;28;20181;-68
2023/01/22 00:25:44;;;;;;;14.32;10.45;;;1.10;99.90;;;;;;5044636;28;20213;-67
2023/01/22 00:28:10;;;;;;;16.30;10.40;;;1.20;99.90;;;;;;5041541;28;20193;-68
2023/01/22 00:30:36;;;;;;;14.38;10.77;;;1.70;99.90;;;;;;5040324;28;20186;-68
2023/01/22 00:33:02;;;;;;;14.07;10.52;;;0.80;99.90;;;;;;5045447;28;20234;-68
2023/01/22 00:35:28;;;;;;;14.13;10.47;;;0.60;99.90;;;;;;5040790;28;20221;-69
2023/01/22 00:37:53;;;;;;;12.97;9.50;;;1.80;99.90;;;;;;5043228;28;20498;-68
2023/01/22 00:40:19;;;;;;;15.40;9.47;;;1.40;99.90;;;;;;5045494;28;20859;-68
2023/01/22 00:42:45;;;;;;;14.90;10.43;;;1.50;99.90;;;;;;5045256;28;20193;-68
2023/01/22 00:45:14;;;;;;;14.30;10.10;;;1.10;99.90;;;;;;5040660;28;20221;-70
2023/01/22 00:47:40;;;;;;;13.93;10.77;;;1.10;99.90;;;;;;5042635;28;20198;-69
2023/01/22 00:50:07;;;;;;;14.88;9.93;;;1.30;99.90;;;;;;5046763;28;20201;-71
2023/01/22 00:52:33;;;;;;;13.45;10.05;;;1.20;99.90;;;;;;5044057;28;20186;-68
2023/01/22 00:54:58;;;;;;;14.20;9.97;;;1.40;99.90;;;;;;5041533;28;20703;-68
2023/01/22 00:57:24;;;;;;;14.20;10.87;;;1.40;99.90;;;;;;5045322;28;20440;-68
2023/01/22 00:59:51;;;;;;;12.73;9.37;;;1.60;99.90;;;;;;5043723;28;20182;-69
2023/01/22 01:02:17;;;;;;;12.85;10.50;;;1.90;99.90;;;;;;5039184;28;20178;-69
2023/01/22 01:04:42;;;;;;;13.30;9.82;;;1.10;99.90;;;;;;5043371;28;20193;-69
2023/01/22 01:07:08;;;;;;;12.50;10.13;;;1.30;99.90;;;;;;5047134;28;20185;-70
2023/01/22 01:09:34;;;;;;;15.17;10.27;;;1.40;99.90;;;;;;5045559;28;20193;-70
2023/01/22 01:12:00;;;;;;;12.37;9.67;;;1.50;99.90;;;;;;5043384;28;20564;-68
2023/01/22 01:14:26;;;;;;;13.27;9.63;;;1.40;99.90;;;;;;5043793;28;20213;-68
2023/01/22 01:16:52;;;;;;;13.32;9.50;;;1.20;99.90;;;;;;5040556;28;20691;-69
2023/01/22 01:19:19;;;;;;;16.23;10.30;;;0.60;99.90;;;;;;5044994;28;20196;-70
2023/01/22 01:21:46;;;;;;;13.00;10.10;;;1.40;99.90;;;;;;5038857;28;20186;-68
2023/01/22 01:24:11;;;;;;;13.93;9.80;;;0.80;99.90;;;;;;5041279;28;20781;-69
2023/01/22 01:26:39;;;;;;;13.80;9.77;;;0.80;99.90;;;;;;5044524;28;20218;-68
2023/01/22 01:29:05;;;;;;;12.30;10.20;;;1.40;99.90;;;;;;5043722;28;20198;-69
2023/01/22 01:31:30;;;;;;;16.70;12.18;;;0.70;99.90;;;;;;5034719;28;20556;-69
2023/01/22 01:33:56;;;;;;;16.37;11.20;;;0.70;99.90;;;;;;5039510;28;20222;-69
2023/01/22 01:36:24;;;;;;;14.40;10.80;;;1.60;99.90;;;;;;5042225;28;20205;-69
2023/01/22 01:38:50;;;;;;;12.18;9.93;;;1.50;99.90;;;;;;5045703;28;20185;-68
2023/01/22 01:41:22;;;;;;;12.55;9.90;;;2.00;99.90;;;;;;5044864;28;20269;-68
2023/01/22 01:44:09;;;;;;;15.13;11.13;;;2.00;99.90;;;;;;5038066;28;20269;-67
2023/01/22 01:46:39;;;;;;;14.88;9.82;;;1.60;99.90;;;;;;5036301;28;20213;-67
2023/01/22 01:49:08;;;;;;;14.88;10.48;;;1.60;99.90;;;;;;5045934;28;20352;-67
2023/01/22 01:51:35;;;;;;;12.98;10.45;;;1.60;99.90;;;;;;5044947;28;20655;-69
2023/01/22 01:54:02;;;;;;;13.20;9.60;;;1.00;99.90;;;;;;5043836;28;20209;-69
2023/01/22 01:56:44;;;;;;;13.75;10.70;;;1.30;99.90;;;;;;5048209;28;20663;-68
2023/01/22 01:59:13;;;;;;;11.93;9.77;;;1.10;99.90;;;;;;5045188;28;20658;-68
2023/01/22 02:01:39;;;;;;;15.77;11.40;;;0.90;99.90;;;;;;5041918;28;20182;-67
2023/01/22 02:04:05;;;;;;;13.10;9.93;;;1.40;99.90;;;;;;5044196;28;20185;-68
2023/01/22 02:06:31;;;;;;;14.18;10.57;;;2.10;99.90;;;;;;5042858;28;20378;-67
2023/01/22 02:08:59;;;;;;;14.67;10.97;;;1.50;99.90;;;;;;5042850;28;20335;-68
2023/01/22 02:11:26;;;;;;;12.45;9.95;;;0.80;99.90;;;;;;5043968;28;20196;-68
2023/01/22 02:14:00;;;;;;;11.73;9.75;;;1.60;99.90;;;;;;5042870;28;20245;-69
2023/01/22 02:16:26;;;;;;;12.55;10.48;;;1.60;99.90;;;;;;5038789;28;20302;-68
2023/01/22 02:18:51;;;;;;;13.77;9.47;;;1.80;99.90;;;;;;5043644;28;20257;-69
2023/01/22 02:21:37;;;;;;;13.73;10.87;;;1.20;99.90;;;;;;5042964;28;20210;-69
2023/01/22 02:24:12;;;;;;;14.85;10.85;;;1.80;99.90;;;;;;5042359;28;20678;-69
2023/01/22 02:26:38;;;;;;;13.68;10.48;;;1.60;99.90;;;;;;5041079;28;20623;-69
2023/01/22 02:29:06;;;;;;;15.60;11.18;;;1.80;99.90;;;;;;5041796;28;20285;-69
2023/01/22 02:31:36;;;;;;;12.68;10.25;;;2.20;99.90;;;;;;5038647;28;20182;-69
2023/01/22 02:34:01;;;;;;;11.52;9.38;;;1.60;99.90;;;;;;5042637;28;20202;-68
2023/01/22 02:36:29;;;;;;;15.50;10.80;;;1.60;99.90;;;;;;5039079;28;20217;-68
2023/01/22 02:38:55;;;;;;;11.85;10.05;;;1.60;99.90;;;;;;5040633;28;20663;-67
2023/01/22 02:41:21;;;;;;;15.40;10.90;;;1.40;99.90;;;;;;5039544;28;20190;-67
2023/01/22 02:43:47;;;;;;;14.90;11.40;;;2.00;99.90;;;;;;5040251;28;20190;-68
2023/01/22 02:46:12;;;;;;;16.20;12.30;;;1.00;99.90;;;;;;5038736;28;20291;-69
2023/01/22 02:48:38;;;;;;;12.80;10.00;;;1.50;99.90;;;;;;5042105;28;20503;-69
2023/01/22 02:51:04;;;;;;;13.63;11.47;;;0.80;99.90;;;;;;5042522;28;20763;-68
2023/01/22 02:53:30;;;;;;;13.15;10.82;;;1.50;99.90;;;;;;5040215;28;20598;-69
2023/01/22 02:55:56;;;;;;;13.32;10.65;;;1.70;99.90;;;;;;5042757;28;20236;-69
2023/01/22 02:58:21;;;;;;;14.60;10.63;;;1.50;99.90;;;;;;5043915;28;20190;-68
2023/01/22 03:00:47;;;;;;;15.17;11.10;;;1.60;99.90;;;;;;5034538;28;21469;-68
2023/01/22 03:03:16;;;;;;;13.40;9.93;;;1.60;99.90;;;;;;5040328;28;20196;-68
2023/01/22 03:05:49;;;;;;;15.40;10.80;;;1.10;99.90;;;;;;5042958;28;20684;-69
2023/01/22 03:08:14;;;;;;;13.55;10.05;;;1.70;99.90;;;;;;5040245;28;20618;-68
2023/01/22 03:10:40;;;;;;;11.87;10.07;;;1.40;99.90;;;;;;5038799;28;20261;-68
2023/01/22 03:21:19;;;;;;;12.85;11.05;;;1.90;99.90;;;;;;5039649;28;20186;-68
2023/01/22 03:23:52;;;;;;;14.13;10.55;;;1.50;99.90;;;;;;5041736;28;20260;-68
2023/01/22 03:26:20;;;;;;;12.40;10.18;;;1.60;99.90;;;;;;5040110;28;20206;-69
2023/01/22 03:28:47;;;;;;;12.68;9.95;;;1.80;99.90;;;;;;5044404;28;20209;-69
2023/01/22 03:31:14;;;;;;;14.05;10.57;;;1.30;99.90;;;;;;5042773;28;20186;-69
2023/01/22 03:33:41;;;;;;;16.45;11.35;;;1.90;99.90;;;;;;5046824;28;20182;-69
2023/01/22 03:36:09;;;;;;;13.27;9.05;;;1.50;99.90;;;;;;5042336;28;20573;-69
2023/01/22 03:38:35;;;;;;;12.52;10.05;;;1.70;99.90;;;;;;5045394;28;20178;-68
2023/01/22 03:41:02;;;;;;;15.33;11.20;;;1.90;99.90;;;;;;5042030;28;20205;-68
2023/01/22 03:43:28;;;;;;;13.07;10.35;;;1.80;99.90;;;;;;5044639;28;20577;-68
2023/01/22 03:46:05;;;;;;;13.27;10.80;;;1.00;99.90;;;;;;5045966;28;20210;-68
2023/01/22 03:48:31;;;;;;;13.77;10.35;;;1.70;99.90;;;;;;5048055;28;20298;-68
2023/01/22 03:51:07;;;;;;;13.75;10.57;;;2.00;99.90;;;;;;5048363;28;20190;-68
2023/01/22 03:53:33;;;;;;;13.95;11.07;;;1.70;99.90;;;;;;5048479;28;20216;-68
2023/01/22 03:56:01;;;;;;;13.48;10.40;;;1.90;99.90;;;;;;5045683;28;20197;-69
2023/01/22 03:58:28;;;;;;;16.35;11.38;;;1.10;99.90;;;;;;5048556;28;20276;-68
2023/01/22 04:00:56;;;;;;;16.90;11.02;;;1.50;99.90;;;;;;5045450;28;20480;-68
2023/01/22 04:03:24;;;;;;;13.48;10.00;;;1.90;99.90;;;;;;5044195;28;20178;-68
2023/01/22 04:05:50;;;;;;;14.43;11.00;;;1.90;99.90;;;;;;5045400;28;20579;-68
2023/01/22 04:08:16;;;;;;;13.23;10.07;;;2.00;99.90;;;;;;5046247;28;20194;-69
2023/01/22 04:10:42;;;;;;;13.63;10.90;;;1.60;99.90;;;;;;5039516;28;20194;-69
2023/01/22 04:13:07;;;;;;;13.48;10.68;;;1.90;99.90;;;;;;5034683;28;20193;-70
2023/01/22 04:15:33;;;;;;;15.30;11.17;;;1.80;99.90;;;;;;5040189;28;20233;-69
2023/01/22 04:17:59;;;;;;;14.20;11.77;;;2.50;99.90;;;;;;5046845;28;20260;-69
2023/01/22 04:20:24;;;;;;;17.87;12.33;;;2.10;99.90;;;;;;5043990;28;20174;-69
2023/01/22 04:22:50;;;;;;;16.37;11.40;;;2.00;99.90;;;;;;5047536;28;20190;-68
2023/01/22 04:25:16;;;;;;;16.92;11.15;;;2.40;99.90;;;;;;5041274;28;20218;-68
2023/01/22 04:27:44;;;;;;;17.97;12.43;;;2.30;99.90;;;;;;5044461;28;20556;-68
2023/01/22 04:30:10;;;;;;;15.27;10.75;;;1.70;99.90;;;;;;5045775;28;20197;-68
2023/01/22 04:32:36;;;;;;;14.07;10.13;;;2.00;99.90;;;;;;5044262;28;20441;-68
2023/01/22 04:35:02;;;;;;;15.23;11.73;;;1.80;99.90;;;;;;5045140;28;20210;-69
2023/01/22 04:37:29;;;;;;;14.32;11.30;;;2.10;99.90;;;;;;5046883;28;20236;-68
2023/01/22 04:39:54;;;;;;;13.80;10.57;;;2.10;99.90;;;;;;5045223;28;20271;-68
2023/01/22 04:42:20;;;;;;;13.87;11.13;;;2.40;99.90;;;;;;5047457;28;20313;-68
2023/01/22 04:44:46;;;;;;;16.60;11.30;;;2.10;99.90;;;;;;5046886;28;20563;-68
2023/01/22 04:47:11;;;;;;;15.77;12.00;;;2.10;99.90;;;;;;5043146;28;20588;-68
2023/01/22 04:49:37;;;;;;;15.03;11.33;;;2.20;99.90;;;;;;5046846;28;20666;-68
2023/01/22 04:52:03;;;;;;;15.00;10.67;;;2.10;99.90;;;;;;5045972;28;20194;-68
2023/01/22 04:54:28;;;;;;;14.70;11.37;;;2.10;99.90;;;;;;5045304;28;20275;-69
2023/01/22 04:56:54;;;;;;;14.17;11.63;;;2.60;99.90;;;;;;5043651;28;20253;-69
2023/01/22 04:59:19;;;;;;;14.40;11.07;;;2.00;99.90;;;;;;5044431;28;20685;-68
2023/01/22 05:01:45;;;;;;;13.33;10.20;;;2.10;99.90;;;;;;5044639;28;20197;-68
2023/01/22 05:04:11;;;;;;;14.20;10.90;;;1.90;99.90;;;;;;5046743;28;20233;-68
2023/01/22 05:06:37;;;;;;;14.27;11.70;;;1.40;99.90;;;;;;5049204;28;20471;-70
2023/01/22 05:09:02;;;;;;;15.70;10.90;;;1.90;99.90;;;;;;5043298;28;20456;-69
2023/01/22 05:11:28;;;;;;;17.30;11.37;;;2.00;99.90;;;;;;5042423;28;20190;-69
2023/01/22 05:13:54;;;;;;;17.27;11.50;;;1.30;99.90;;;;;;5044396;28;20186;-68
2023/01/22 05:16:19;;;;;;;12.80;10.17;;;1.60;99.90;;;;;;5039872;28;20226;-68
2023/01/22 05:18:45;;;;;;;12.83;9.77;;;2.00;99.90;;;;;;5040652;28;20603;-68
2023/01/22 05:21:11;;;;;;;15.20;11.07;;;2.40;99.90;;;;;;5042657;28;20208;-68
2023/01/22 05:23:36;;;;;;;14.13;11.10;;;1.70;99.90;;;;;;5038731;28;20579;-68
2023/01/22 05:26:02;;;;;;;13.10;10.63;;;2.00;99.90;;;;;;5043038;28;20206;-68
2023/01/22 05:28:27;;;;;;;13.10;11.33;;;2.10;99.90;;;;;;5046463;28;20269;-68
2023/01/22 05:30:53;;;;;;;14.30;10.97;;;1.50;99.90;;;;;;5040381;28;20189;-67
2023/01/22 05:33:19;;;;;;;16.80;12.80;;;1.80;99.90;;;;;;5042754;28;20280;-67
2023/01/22 05:35:44;;;;;;;15.70;10.70;;;1.90;99.90;;;;;;5045787;28;20218;-69
2023/01/22 05:38:10;;;;;;;19.07;11.60;;;2.20;99.90;;;;;;5049096;28;20718;-67
2023/01/22 05:40:35;;;;;;;13.20;10.23;;;2.10;99.90;;;;;;5045330;28;20194;-69
2023/01/22 05:43:02;;;;;;;13.70;10.17;;;1.80;99.90;;;;;;5041786;28;20274;-69
2023/01/22 05:45:28;;;;;;;13.80;10.07;;;1.80;99.90;;;;;;5045815;28;20268;-67
2023/01/22 05:47:54;;;;;;;15.43;11.60;;;2.30;99.90;;;;;;5047744;28;20198;-68
2023/01/22 05:50:20;;;;;;;12.83;10.90;;;1.90;99.90;;;;;;5049728;28;20285;-68
2023/01/22 05:52:46;;;;;;;16.30;11.18;;;2.10;99.90;;;;;;5043537;28;20472;-68
2023/01/22 05:55:12;;;;;;;15.40;11.30;;;1.90;99.90;;;;;;5038109;28;20282;-70
2023/01/22 05:57:38;;;;;;;12.90;10.20;;;1.80;99.90;;;;;;5035996;28;20283;-70
2023/01/22 06:00:06;;;;;;;12.05;9.85;;;1.70;99.90;;;;;;5042402;28;20522;-68
2023/01/22 06:02:32;;;;;;;14.52;11.38;;;1.70;99.90;;;;;;5035533;28;20277;-68
2023/01/22 06:04:58;;;;;;;18.20;11.60;;;1.80;99.90;;;;;;5043327;28;20289;-68
2023/01/22 06:07:24;;;;;;;16.17;12.13;;;1.70;99.90;;;;;;5044627;28;20277;-68
2023/01/22 06:09:49;;;;;;;15.23;11.00;;;1.60;99.90;;;;;;5045633;28;20658;-69
2023/01/22 06:12:17;;;;;;;15.73;11.23;;;1.30;99.90;;;;;;5036889;28;20450;-69
2023/01/22 06:14:42;;;;;;;17.55;12.52;;;2.10;99.90;;;;;;5042132;28;20582;-68
2023/01/22 06:17:08;;;;;;;17.63;11.60;;;2.00;99.90;;;;;;5041526;28;20196;-69
2023/01/22 06:19:33;;;;;;;16.37;11.13;;;1.80;99.90;;;;;;5049661;28;20177;-70
2023/01/22 06:21:59;;;;;;;17.50;12.53;;;1.90;99.90;;;;;;5046255;28;20188;-69
2023/01/22 06:24:25;;;;;;;15.60;12.20;;;1.60;99.90;;;;;;5042546;28;20572;-68
2023/01/22 06:26:50;;;;;;;17.30;11.37;;;1.80;99.90;;;;;;5040206;28;20249;-68
2023/01/22 06:29:16;;;;;;;18.37;12.93;;;1.80;99.90;;;;;;5041685;28;20216;-68
2023/01/22 06:31:42;;;;;;;15.33;11.17;;;1.90;99.90;;;;;;5042445;28;20193;-68
2023/01/22 06:34:08;;;;;;;16.17;11.63;;;2.10;99.90;;;;;;5041925;28;20205;-68
2023/01/22 06:36:33;;;;;;;14.48;12.43;;;1.60;99.90;;;;;;5046558;28;20211;-68
2023/01/22 06:38:59;;;;;;;19.37;11.70;;;2.30;99.90;;;;;;5043642;28;20268;-68
2023/01/22 06:41:25;;;;;;;18.97;13.20;;;1.80;99.90;;;;;;5041213;28;20182;-68
2023/01/22 06:43:50;;;;;;;20.10;12.40;;;1.70;99.90;;;;;;5044327;28;20182;-68
2023/01/22 06:46:16;;;;;;;16.93;11.43;;;1.70;99.90;;;;;;5041705;28;20209;-68
2023/01/22 06:48:42;;;;;;;20.43;12.30;;;1.40;99.90;;;;;;5044350;28;20693;-68
2023/01/22 06:51:09;;;;;;;18.48;12.75;;;1.70;99.90;;;;;;5045932;28;20181;-68
2023/01/22 06:53:34;;;;;;;17.33;11.85;;;1.80;99.90;;;;;;5043652;28;20274;-68
2023/01/22 06:56:00;;;;;;;19.07;12.67;;;2.00;99.90;;;;;;5046565;28;20315;-69
2023/01/22 06:58:26;;;;;;;18.70;13.13;;;2.00;99.90;;;;;;5043083;28;20193;-70
2023/01/22 07:00:52;;;;;;;16.00;11.77;;;2.10;99.90;;;;;;5044620;28;20443;-70
2023/01/22 07:03:18;;;;;;;19.73;12.87;;;1.90;99.90;;;;;;5039739;28;20319;-67
2023/01/22 07:05:43;;;;;;;17.50;12.60;;;1.70;99.90;;;;;;5036321;28;20285;-68
2023/01/22 07:08:14;;;;;;;19.33;13.10;;;2.00;99.90;;;;;;5042481;28;20205;-67
2023/01/22 07:10:40;;;;;;;18.90;13.48;;;1.90;99.90;;;;;;5042160;28;20283;-68
2023/01/22 07:13:08;;;;;;;17.75;12.80;;;1.40;99.90;;;;;;5041120;28;20196;-70
2023/01/22 07:15:34;;;;;;;19.98;12.65;;;1.90;99.90;;;;;;5037075;28;20217;-70
2023/01/22 07:18:00;;;;;;;20.90;14.00;;;1.90;99.90;;;;;;5041815;28;20182;-68
2023/01/22 07:20:25;;;;;;;16.10;12.43;;;2.10;99.90;;;;;;5040730;28;20182;-68
2023/01/22 07:22:51;;;;;;;17.40;12.13;;;2.00;99.90;;;;;;5041941;28;20517;-68
2023/01/22 07:25:18;;;;;;;18.27;12.57;;;2.50;99.90;;;;;;5032844;28;20717;-68
2023/01/22 07:27:44;;;;;;;17.23;12.13;;;2.10;99.90;;;;;;5046565;28;20185;-70
2023/01/22 07:30:11;;;;;;;16.20;11.93;;;2.10;99.90;;;;;;5044496;28;20208;-69
2023/01/22 07:32:36;;;;;;;17.02;11.75;;;1.80;99.90;;;;;;5043751;28;20235;-70
2023/01/22 07:35:02;;;;;;;17.87;13.33;;;1.80;99.90;;;;;;5048158;28;20592;-69
2023/01/22 07:37:27;;;;;;;19.57;13.60;;;1.70;99.90;;;;;;5047465;28;20229;-67
2023/01/22 07:39:53;;;;;;;18.50;13.50;;;2.40;99.90;;;;;;5046216;28;20452;-69
2023/01/22 07:42:19;;;;;;;19.67;14.07;;;1.70;99.90;;;;;;5043703;28;20186;-70
2023/01/22 07:44:44;;;;;;;20.70;13.43;;;1.80;99.90;;;;;;5043077;28;20214;-67
2023/01/22 07:47:10;;;;;;;18.57;13.87;;;1.60;99.90;;;;;;5043173;28;20220;-69
2023/01/22 07:49:35;;;;;;;19.27;13.23;;;2.30;99.90;;;;;;5049539;28;20182;-70
2023/01/22 07:52:01;;;;;;;21.57;14.60;;;1.60;99.90;;;;;;5046162;28;20265;-69
2023/01/22 07:54:27;;;;;;;23.80;14.73;;;1.50;99.90;;;;;;5045039;28;20214;-70
2023/01/22 07:56:52;;;;;;;21.17;13.87;;;1.20;99.90;;;;;;5043080;28;20496;-68
2023/01/22 07:59:18;;;;;;;20.10;13.23;;;1.50;99.90;;;;;;5042520;28;20186;-69
2023/01/22 08:01:43;;;;;;;20.73;13.00;;;1.60;99.90;;;;;;5039359;28;20182;-68
2023/01/22 08:04:09;;;;;;;19.30;12.63;;;1.70;99.90;;;;;;5046385;28;20286;-69
2023/01/22 08:06:35;;;;;;;20.20;13.73;;;1.80;99.90;;;;;;5042934;28;20209;-70
2023/01/22 08:09:00;;;;;;;21.97;13.90;;;1.70;99.90;;;;;;5045174;28;20186;-69
2023/01/22 08:11:27;;;;;;;20.77;13.40;;;1.60;99.90;;;;;;5041819;28;20200;-69
2023/01/22 08:13:53;;;;;;;19.63;12.77;;;1.60;99.90;;;;;;5041697;28;20183;-68
2023/01/22 08:16:19;;;;;;;18.40;12.90;;;1.90;99.90;;;;;;5041688;28;20603;-68
2023/01/22 08:18:45;;;;;;;18.75;13.65;;;1.60;99.90;;;;;;5047994;28;20558;-68
2023/01/22 08:21:11;;;;;;;19.50;13.23;;;1.80;99.90;;;;;;5045607;28;20190;-68
2023/01/22 08:23:36;;;;;;;20.53;13.67;;;1.90;99.90;;;;;;5047657;28;20179;-71
2023/01/22 08:26:03;;;;;;;16.63;12.80;;;2.10;99.90;;;;;;5046965;28;20215;-67
2023/01/22 08:28:30;;;;;;;18.77;12.93;;;2.10;99.90;;;;;;5042455;28;20190;-69
2023/01/22 08:30:57;;;;;;;18.95;13.43;;;2.00;99.90;;;;;;5043942;28;20236;-70
2023/01/22 08:33:23;;;;;;;18.35;12.45;;;2.60;99.90;;;;;;5045708;28;20182;-70
2023/01/22 08:35:49;;;;;;;15.97;11.43;;;2.20;99.90;;;;;;5042673;28;20594;-67
2023/01/22 08:38:14;;;;;;;16.40;12.70;;;2.40;99.90;;;;;;5047178;28;20189;-68
2023/01/22 08:40:40;;;;;;;19.97;13.03;;;2.30;99.90;;;;;;5047635;28;20190;-68
2023/01/22 08:43:06;;;;;;;18.43;12.67;;;2.30;99.90;;;;;;5042083;28;20570;-70
2023/01/22 08:45:32;;;;;;;17.77;12.30;;;2.30;99.90;;;;;;5043950;28;20197;-68
2023/01/22 08:47:59;;;;;;;19.45;12.30;;;2.40;99.90;;;;;;5047250;28;20198;-68
2023/01/22 08:50:28;;;;;;;17.38;12.77;;;2.20;99.90;;;;;;5047566;28;20210;-70
2023/01/22 08:52:57;;;;;;;20.23;13.30;;;2.30;99.90;;;;;;5047148;28;20234;-67
2023/01/22 08:55:23;;;;;;;17.75;12.82;;;2.40;99.90;;;;;;5045266;28;20618;-70
2023/01/22 08:57:55;;;;;;;18.55;13.35;;;2.20;99.90;;;;;;5047231;28;20179;-70
2023/01/22 09:00:22;;;;;;;14.90;11.23;;;2.70;99.90;;;;;;5046463;28;20723;-69
2023/01/22 09:02:47;;;;;;;16.58;12.20;;;2.70;99.90;;;;;;5046848;28;20185;-70
2023/01/22 09:05:14;;;;;;;17.10;11.90;;;2.70;99.90;;;;;;5043818;28;20210;-68
2023/01/22 09:07:39;;;;;;;19.23;11.45;;;2.70;99.90;;;;;;5047651;28;20178;-67
2023/01/22 09:10:07;;;;;;;16.97;11.83;;;2.00;99.90;;;;;;5044479;28;20194;-68
2023/01/22 09:12:33;;;;;;;15.48;11.77;;;2.50;99.90;;;;;;5064518;28;20197;-69
2023/01/22 09:14:59;;;;;;;16.75;13.02;;;2.70;99.90;;;;;;5045554;28;20216;-69
2023/01/22 09:17:25;;;;;;;17.70;12.07;;;2.20;99.90;;;;;;5045910;28;20267;-68
2023/01/22 09:19:50;;;;;;;18.33;12.37;;;2.80;99.90;;;;;;5044579;28;20183;-67
2023/01/22 09:22:16;;;;;;;19.33;12.20;;;2.80;99.90;;;;;;5049363;28;20206;-69
2023/01/22 09:24:41;;;;;;;15.60;11.87;;;2.60;99.90;;;;;;5045142;28;20182;-69
2023/01/22 09:27:08;;;;;;;19.20;11.87;;;2.10;99.90;;;;;;5047127;28;20186;-70
2023/01/22 09:29:33;;;;;;;14.93;11.10;;;2.70;99.90;;;;;;5047258;28;20214;-68
2023/01/22 09:31:59;;;;;;;13.07;10.33;;;3.00;99.90;;;;;;5046009;28;20182;-69
2023/01/22 09:34:25;;;;;;;15.17;11.10;;;3.00;99.90;;;;;;5046445;28;20953;-69
2023/01/22 09:36:50;;;;;;;17.07;11.60;;;3.10;99.90;;;;;;5046554;28;20209;-69
2023/01/22 09:39:16;;;;;;;17.90;11.23;;;2.90;99.90;;;;;;5046698;28;20188;-69
2023/01/22 09:41:48;;;;;;;12.98;10.25;;;3.00;99.90;;;;;;5047720;28;20261;-68
2023/01/22 09:44:29;;;;;;;17.00;11.27;;;3.30;99.90;;;;;;5049647;28;20654;-69
2023/01/22 09:47:05;;;;;;;15.15;10.80;;;3.20;99.90;;;;;;5044763;28;20218;-68
2023/01/22 09:49:54;;;;;;;15.40;11.07;;;3.30;99.90;;;;;;5046922;28;20240;-68
2023/01/22 09:52:25;;;;;;;15.40;11.80;;;3.20;99.90;;;;;;5045015;28;20293;-71
2023/01/22 09:54:51;;;;;;;16.88;11.65;;;3.50;99.90;;;;;;5045267;28;20717;-70
2023/01/22 09:57:17;;;;;;;16.53;12.70;;;3.40;99.90;;;;;;5039761;28;20194;-70
2023/01/22 09:59:52;;;;;;;14.53;11.27;;;3.20;99.90;;;;;;5040030;28;20191;-68
2023/01/22 10:02:43;;;;;;;16.42;10.95;;;3.40;99.90;;;;;;5037809;28;20455;-68
2023/01/22 10:05:29;;;;;;;14.13;10.05;;;3.50;99.90;;;;;;5045232;28;20680;-68
2023/01/22 10:08:30;;;;;;;12.35;10.18;;;3.60;99.90;;;;;;5043122;28;20196;-67
2023/01/22 10:10:59;;;;;;;14.20;9.52;;;3.60;99.90;;;;;;5041595;28;20186;-69
2023/01/22 10:13:32;;;;;;;13.77;10.13;;;3.60;99.90;;;;;;5041012;28;20614;-69
2023/01/22 10:15:58;;;;;;;16.02;12.13;;;3.50;99.90;;;;;;5035188;28;20377;-69
2023/01/22 10:18:29;;;;;;;17.33;12.13;;;3.30;99.90;;;;;;5046080;28;20710;-68
2023/01/22 10:20:58;;;;;;;14.27;10.45;;;3.40;99.90;;;;;;5043238;28;20527;-68
2023/01/22 10:23:25;;;;;;;16.42;10.65;;;3.30;99.90;;;;;;5039917;28;20273;-68
2023/01/22 10:25:59;;;;;;;12.35;9.45;;;3.30;99.90;;;;;;5040173;28;20281;-69
2023/01/22 10:28:26;;;;;;;14.57;11.13;;;3.40;99.90;;;;;;5043386;28;20269;-69
2023/01/22 10:30:57;;;;;;;16.25;11.23;;;3.10;99.90;;;;;;5051101;28;20182;-70
2023/01/22 10:33:24;;;;;;;17.45;11.45;;;3.10;99.90;;;;;;5041693;28;20294;-70
2023/01/22 10:35:55;;;;;;;14.73;10.80;;;2.60;99.90;;;;;;5037936;28;20219;-69
2023/01/22 10:38:31;;;;;;;13.25;10.07;;;2.80;99.90;;;;;;5040535;28;20662;-70
2023/01/22 10:41:00;;;;;;;15.45;11.57;;;3.50;99.90;;;;;;5041487;28;20253;-69
2023/01/22 10:43:34;;;;;;;17.17;11.68;;;3.40;99.90;;;;;;5040911;28;20190;-69
2023/01/22 10:46:17;;;;;;;17.77;11.65;;;3.30;99.90;;;;;;5035683;28;20208;-69
2023/01/22 10:48:43;;;;;;;14.23;10.68;;;3.40;99.90;;;;;;5036080;28;20204;-69
2023/01/22 10:51:19;;;;;;;13.55;9.85;;;3.50;99.90;;;;;;5042771;28;20274;-70
2023/01/22 10:53:54;;;;;;;14.88;11.10;;;3.60;99.90;;;;;;5042908;28;20193;-69
2023/01/22 10:56:39;;;;;;;14.80;11.00;;;3.70;99.90;;;;;;5046045;28;20216;-69
2023/01/22 10:59:21;;;;;;;12.93;9.65;;;3.90;99.90;;;;;;5036608;28;20672;-69
2023/01/22 11:01:53;;;;;;;15.32;11.40;;;3.60;99.90;;;;;;5038073;28;20731;-69
2023/01/22 11:04:31;;;;;;;16.38;10.60;;;3.50;99.90;;;;;;5046448;28;20185;-69
2023/01/22 11:07:06;;;;;;;15.45;11.38;;;3.60;99.90;;;;;;5043795;28;20220;-70
2023/01/22 11:09:52;;;;;;;14.80;10.60;;;3.60;99.90;;;;;;5042325;28;20223;-68
2023/01/22 11:12:39;;;;;;;14.07;10.43;;;3.80;99.90;;;;;;5045647;28;20216;-69
2023/01/22 11:15:20;;;;;;;15.50;10.85;;;3.60;99.90;;;;;;5043296;28;20217;-69
2023/01/22 11:17:50;;;;;;;17.02;11.40;;;3.60;99.90;;;;;;5046017;28;20178;-70
2023/01/22 11:20:43;;;;;;;14.00;10.07;;;3.70;99.90;;;;;;5044117;28;20186;-70
2023/01/22 11:23:08;;;;;;;13.45;10.50;;;3.80;99.90;;;;;;5043132;28;20190;-67
2023/01/22 11:25:42;;;;;;;14.00;10.80;;;3.80;99.90;;;;;;5041309;28;20603;-70
2023/01/22 11:28:08;;;;;;;14.13;10.98;;;3.70;99.90;;;;;;5040772;28;20182;-70
2023/01/22 11:30:36;;;;;;;14.33;10.87;;;3.90;99.90;;;;;;5042300;28;20191;-69
2023/01/22 11:33:25;;;;;;;16.33;10.55;;;3.90;99.90;;;;;;5044818;28;20195;-69
2023/01/22 11:36:13;;;;;;;14.57;10.23;;;4.30;99.90;;;;;;5039294;28;20215;-69
2023/01/22 11:38:50;;;;;;;13.55;9.75;;;4.10;99.90;;;;;;5045220;28;20209;-70
2023/01/22 11:41:47;;;;;;;13.10;10.38;;;4.10;99.90;;;;;;5038949;28;20616;-70
2023/01/22 11:44:47;;;;;;;12.13;9.35;;;4.20;99.90;;;;;;5042694;28;20247;-68
2023/01/22 11:47:33;;;;;;;12.02;9.98;;;4.20;99.90;;;;;;5044121;28;20199;-71
2023/01/22 11:50:02;;;;;;;13.35;9.85;;;4.20;99.90;;;;;;5046979;28;20197;-68
2023/01/22 11:52:55;;;;;;;14.95;10.77;;;4.00;99.90;;;;;;5046641;28;20199;-69
2023/01/22 11:56:03;;;;;;;11.52;9.93;;;4.10;99.90;;;;;;5044658;28;20237;-69
2023/01/22 11:58:58;;;;;;;10.95;8.98;;;4.10;99.90;;;;;;5050259;28;20688;-70
2023/01/22 12:01:42;;;;;;;11.63;8.98;;;4.00;99.90;;;;;;5044655;28;20178;-68
2023/01/22 12:04:33;;;;;;;11.20;9.25;;;4.20;99.90;;;;;;5047855;28;20587;-68
2023/01/22 12:07:19;;;;;;;13.18;10.13;;;4.10;99.90;;;;;;5046482;28;20195;-70
2023/01/22 12:10:04;;;;;;;13.60;9.80;;;4.00;99.90;;;;;;5040775;28;20714;-67
2023/01/22 12:13:05;;;;;;;12.55;9.35;;;4.10;99.90;;;;;;5049958;28;20178;-68
2023/01/22 12:16:10;;;;;;;12.15;9.93;;;4.30;99.90;;;;;;5001498;28;20224;-68
2023/01/22 12:19:02;;;;;;;11.75;9.23;;;4.10;99.90;;;;;;5046913;28;20174;-69
2023/01/22 12:21:33;;;;;;;11.48;9.60;;;4.20;99.90;;;;;;5048681;28;20549;-68
2023/01/22 12:24:07;;;;;;;15.73;10.90;;;3.90;99.90;;;;;;5047450;28;20183;-68
2023/01/22 12:26:39;;;;;;;11.50;8.43;;;4.50;99.90;;;;;;5045713;28;20527;-68
2023/01/22 12:29:19;;;;;;;11.50;8.68;;;4.10;99.90;;;;;;5045494;28;20193;-68
2023/01/22 12:31:48;;;;;;;10.55;9.02;;;4.00;99.90;;;;;;5046130;28;20194;-68
2023/01/22 12:34:22;;;;;;;11.88;8.35;;;4.20;99.90;;;;;;5049114;28;20660;-68
2023/01/22 12:36:49;;;;;;;14.15;10.75;;;4.10;99.90;;;;;;5048748;28;20714;-68
2023/01/22 12:39:22;;;;;;;12.38;9.20;;;3.60;99.90;;;;;;5049665;28;20173;-68
2023/01/22 12:42:15;;;;;;;12.25;8.48;;;3.90;99.90;;;;;;5048750;28;20177;-69
2023/01/22 12:45:25;;;;;;;11.30;8.80;;;4.10;99.90;;;;;;5061146;28;20636;-68
2023/01/22 12:48:04;;;;;;;12.85;9.75;;;4.00;99.90;;;;;;5042921;28;20203;-69
2023/01/22 12:50:30;;;;;;;12.05;9.63;;;4.20;99.90;;;;;;5042449;28;20642;-69
2023/01/22 12:56:30;;;;;;;12.57;8.98;;;4.20;99.90;;;;;;5039841;28;20337;-67
2023/01/22 12:58:57;;;;;;;13.75;9.30;;;4.00;99.90;;;;;;5043382;28;20213;-68
2023/01/22 13:01:31;;;;;;;13.77;9.73;;;3.70;99.90;;;;;;5043140;28;20197;-67